Ming Zhou 56 — BLAC4 — position and weather

sailwx.info

Track history (hours):
 
Tides and Currents Weather Stations Pressure Air Temp Water Temp Dewpoint Dewpoint Depression Visibility Wind Speed Wind Dir Waves Ship Positions

Ming Zhou 56

Last reported at 2014-Sep-17 08:30 UTC. Time now 2014-Nov-01 14:10 UTC.
Position N 29°37' E 122°05'.
Warning: this ship's position is 45 days out of date.

Length 123 m; draft 5.1 m.

Type: Cargo ship. MMSI: 412165000.

Date/timePositionNaut miles runAvg speedWind from/ knotsBaromVisibWave heightAir tempDewpointWater temp
2014-Sep-17 08:30N 29°37' E 122°05'910.0
2014-Sep-17 07:34N 29°46' E 122°04'9 9.1
2014-Sep-17 06:33N 29°55' E 122°07'4 3.5
2014-Sep-17 05:31N 29°53' E 122°03'0 0.0
2014-Sep-17 03:33N 29°53' E 122°03'7 6.7
2014-Sep-17 02:33N 29°57' E 121°57'3 0.4
2014-Sep-16 18:33N 29°57' E 122°00'9 8.7
2014-Sep-16 17:29N 29°50' E 122°06'1010.4
2014-Sep-16 16:31N 29°40' E 122°03'1 1.3
2014-Sep-16 15:30N 29°39' E 122°03'258 8.6
2014-Sep-15 09:32N 26°01' E 119°29'1 0.5
2014-Sep-15 08:22N 26°00' E 119°29'0 0.0
2014-Sep-15 07:28N 26°00' E 119°29'0 0.0
2014-Sep-15 05:28N 26°00' E 119°29'0 0.0
2014-Sep-15 04:22N 26°00' E 119°29'0 0.0
2014-Sep-15 03:16N 26°00' E 119°29'0 0.0
2014-Sep-15 02:10N 26°00' E 119°29'0 0.0
2014-Sep-15 01:22N 26°00' E 119°29'0 0.0
2014-Sep-14 23:22N 26°00' E 119°29'0 0.0
2014-Sep-14 20:16N 26°00' E 119°29'0 0.0
2014-Sep-14 19:16N 26°00' E 119°29'0 0.0
2014-Sep-14 18:28N 26°00' E 119°29'0 0.0
2014-Sep-14 17:04N 26°00' E 119°29'0 0.0
2014-Sep-14 16:16N 26°00' E 119°29'0 0.0
2014-Sep-14 15:22N 26°00' E 119°29'0 0.0
2014-Sep-14 14:28N 26°00' E 119°29'0 0.0
2014-Sep-14 09:22N 26°00' E 119°29'0 0.0
2014-Sep-14 08:16N 26°00' E 119°29'0 0.0
2014-Sep-14 07:16N 26°00' E 119°29'5 6.1
2014-Sep-14 06:27N 26°04' E 119°31'25410.9
2014-Sep-13 07:15N 29°40' E 122°04'810.0
2014-Sep-13 06:29N 29°47' E 122°04'8 8.5
2014-Sep-13 05:33N 29°55' E 122°08'8 7.6
2014-Sep-13 04:33N 29°57' E 121°59'6 0.8
2014-Sep-12 20:32N 29°57' E 121°52'0 0.4
2014-Sep-12 19:31N 29°56' E 121°52'0 0.0
2014-Sep-12 18:31N 29°56' E 121°52'0 0.0
2014-Sep-12 16:19N 29°56' E 121°52'0 0.0
2014-Sep-12 15:31N 29°56' E 121°52'0 0.0
2014-Sep-12 14:07N 29°56' E 121°52'0 0.0
2014-Sep-12 13:25N 29°56' E 121°52'1 0.7
2014-Sep-12 12:33N 29°57' E 121°53'2 0.1
2014-Sep-10 18:04N 29°58' E 121°50'1 2.1
2014-Sep-10 17:34N 29°57' E 121°51'0 0.2
2014-Sep-10 16:25N 29°57' E 121°51'0 0.1
2014-Sep-10 15:31N 29°57' E 121°50'0 0.0
2014-Sep-10 14:25N 29°57' E 121°51'0 0.0
2014-Sep-10 13:31N 29°57' E 121°51'0 0.0
2014-Sep-10 12:31N 29°57' E 121°51'0 0.0
2014-Sep-10 11:25N 29°57' E 121°50'0 0.1
2014-Sep-10 10:25N 29°57' E 121°51'0 0.5
2014-Sep-10 09:33N 29°57' E 121°51'7 6.5
2014-Sep-10 08:26N 29°59' E 121°59'0 0.0
2014-Sep-10 06:19N 29°59' E 121°59'0 0.1
2014-Sep-10 04:19N 29°59' E 121°59'0 0.1
2014-Sep-10 03:31N 29°59' E 121°59'0 0.1
2014-Sep-10 02:31N 29°59' E 121°59'0 0.0
2014-Sep-10 01:31N 29°59' E 121°59'0 0.0
2014-Sep-10 00:25N 29°59' E 121°59'0 0.0
2014-Sep-09 16:19N 29°59' E 121°59'0 0.1
2014-Sep-09 15:31N 29°59' E 121°59'0 0.0
2014-Sep-09 14:31N 29°59' E 121°59'0 0.1
2014-Sep-09 13:19N 29°59' E 121°59'0 0.1
2014-Sep-09 12:31N 29°59' E 121°59'0 0.1
2014-Sep-09 11:31N 29°59' E 121°59'0 0.1
2014-Sep-09 08:13N 29°59' E 121°59'0 0.0
2014-Sep-09 03:33N 29°59' E 121°59'7 6.6
2014-Sep-09 02:33N 29°54' E 122°03'0 0.0
2014-Sep-09 00:31N 29°53' E 122°03'0 0.0
2014-Sep-08 22:25N 29°53' E 122°03'0 0.0
2014-Sep-08 21:31N 29°53' E 122°03'0 0.1
2014-Sep-08 20:32N 29°54' E 122°03'7 5.2
2014-Sep-08 19:16N 29°56' E 121°55'0 0.0
2014-Sep-08 14:33N 29°56' E 121°55'8 7.9
2014-Sep-08 13:33N 29°56' E 122°05'1510.4
2014-Sep-08 12:07N 29°41' E 122°03'5 2.9
2014-Sep-08 10:32N 29°37' E 122°05'25710.3
2014-Sep-07 09:33N 26°00' E 119°29'  
Track history (hours):
 
Tides and Currents Weather Stations Pressure Air Temp Water Temp Dewpoint Dewpoint Depression Visibility Wind Speed Wind Dir Waves Ship Positions

Ming Zhou 56

Last reported at 2014-Sep-17 08:30 UTC. Time now 2014-Nov-01 14:10 UTC.
Position N 29°37' E 122°05'.
Warning: this ship's position is 45 days out of date.

Length 123 m; draft 5.1 m.

Type: Cargo ship. MMSI: 412165000.

Date/timePositionNaut miles runAvg speedWind from/ knotsBaromVisibWave heightAir tempDewpointWater temp
2014-Sep-17 08:30N 29°37' E 122°05'910.0
2014-Sep-17 07:34N 29°46' E 122°04'9 9.1
2014-Sep-17 06:33N 29°55' E 122°07'4 3.5
2014-Sep-17 05:31N 29°53' E 122°03'0 0.0
2014-Sep-17 03:33N 29°53' E 122°03'7 6.7
2014-Sep-17 02:33N 29°57' E 121°57'3 0.4
2014-Sep-16 18:33N 29°57' E 122°00'9 8.7
2014-Sep-16 17:29N 29°50' E 122°06'1010.4
2014-Sep-16 16:31N 29°40' E 122°03'1 1.3
2014-Sep-16 15:30N 29°39' E 122°03'258 8.6
2014-Sep-15 09:32N 26°01' E 119°29'1 0.5
2014-Sep-15 08:22N 26°00' E 119°29'0 0.0
2014-Sep-15 07:28N 26°00' E 119°29'0 0.0
2014-Sep-15 05:28N 26°00' E 119°29'0 0.0
2014-Sep-15 04:22N 26°00' E 119°29'0 0.0
2014-Sep-15 03:16N 26°00' E 119°29'0 0.0
2014-Sep-15 02:10N 26°00' E 119°29'0 0.0
2014-Sep-15 01:22N 26°00' E 119°29'0 0.0
2014-Sep-14 23:22N 26°00' E 119°29'0 0.0
2014-Sep-14 20:16N 26°00' E 119°29'0 0.0
2014-Sep-14 19:16N 26°00' E 119°29'0 0.0
2014-Sep-14 18:28N 26°00' E 119°29'0 0.0
2014-Sep-14 17:04N 26°00' E 119°29'0 0.0
2014-Sep-14 16:16N 26°00' E 119°29'0 0.0
2014-Sep-14 15:22N 26°00' E 119°29'0 0.0
2014-Sep-14 14:28N 26°00' E 119°29'0 0.0
2014-Sep-14 09:22N 26°00' E 119°29'0 0.0
2014-Sep-14 08:16N 26°00' E 119°29'0 0.0
2014-Sep-14 07:16N 26°00' E 119°29'5 6.1
2014-Sep-14 06:27N 26°04' E 119°31'25410.9
2014-Sep-13 07:15N 29°40' E 122°04'810.0
2014-Sep-13 06:29N 29°47' E 122°04'8 8.5
2014-Sep-13 05:33N 29°55' E 122°08'8 7.6
2014-Sep-13 04:33N 29°57' E 121°59'6 0.8
2014-Sep-12 20:32N 29°57' E 121°52'0 0.4
2014-Sep-12 19:31N 29°56' E 121°52'0 0.0
2014-Sep-12 18:31N 29°56' E 121°52'0 0.0
2014-Sep-12 16:19N 29°56' E 121°52'0 0.0
2014-Sep-12 15:31N 29°56' E 121°52'0 0.0
2014-Sep-12 14:07N 29°56' E 121°52'0 0.0
2014-Sep-12 13:25N 29°56' E 121°52'1 0.7
2014-Sep-12 12:33N 29°57' E 121°53'2 0.1
2014-Sep-10 18:04N 29°58' E 121°50'1 2.1
2014-Sep-10 17:34N 29°57' E 121°51'0 0.2
2014-Sep-10 16:25N 29°57' E 121°51'0 0.1
2014-Sep-10 15:31N 29°57' E 121°50'0 0.0
2014-Sep-10 14:25N 29°57' E 121°51'0 0.0
2014-Sep-10 13:31N 29°57' E 121°51'0 0.0
2014-Sep-10 12:31N 29°57' E 121°51'0 0.0
2014-Sep-10 11:25N 29°57' E 121°50'0 0.1
2014-Sep-10 10:25N 29°57' E 121°51'0 0.5
2014-Sep-10 09:33N 29°57' E 121°51'7 6.5
2014-Sep-10 08:26N 29°59' E 121°59'0 0.0
2014-Sep-10 06:19N 29°59' E 121°59'0 0.1
2014-Sep-10 04:19N 29°59' E 121°59'0 0.1
2014-Sep-10 03:31N 29°59' E 121°59'0 0.1
2014-Sep-10 02:31N 29°59' E 121°59'0 0.0
2014-Sep-10 01:31N 29°59' E 121°59'0 0.0
2014-Sep-10 00:25N 29°59' E 121°59'0 0.0
2014-Sep-09 16:19N 29°59' E 121°59'0 0.1
2014-Sep-09 15:31N 29°59' E 121°59'0 0.0
2014-Sep-09 14:31N 29°59' E 121°59'0 0.1
2014-Sep-09 13:19N 29°59' E 121°59'0 0.1
2014-Sep-09 12:31N 29°59' E 121°59'0 0.1
2014-Sep-09 11:31N 29°59' E 121°59'0 0.1
2014-Sep-09 08:13N 29°59' E 121°59'0 0.0
2014-Sep-09 03:33N 29°59' E 121°59'7 6.6
2014-Sep-09 02:33N 29°54' E 122°03'0 0.0
2014-Sep-09 00:31N 29°53' E 122°03'0 0.0
2014-Sep-08 22:25N 29°53' E 122°03'0 0.0
2014-Sep-08 21:31N 29°53' E 122°03'0 0.1
2014-Sep-08 20:32N 29°54' E 122°03'7 5.2
2014-Sep-08 19:16N 29°56' E 121°55'0 0.0
2014-Sep-08 14:33N 29°56' E 121°55'8 7.9
2014-Sep-08 13:33N 29°56' E 122°05'1510.4
2014-Sep-08 12:07N 29°41' E 122°03'5 2.9
2014-Sep-08 10:32N 29°37' E 122°05'25710.3
2014-Sep-07 09:33N 26°00' E 119°29'  

Dump ship's entire track history